Time;durP1;ratioP1;P1;durP2;ratioP2;P2;SDS_P1;SDS_P2;PMS_P1;PMS_P2;Temp;Humidity;BMP_temperature;BMP_pressure;BME280_temperature;BME280_humidity;BME280_pressure;Samples;Min_cycle;Max_cycle;Signal;HPM_P1;HPM_P2
2023/06/17 00:01:11;;;;;;;9.52;8.63;;;13.90;99.90;;;;;;10333930;28;20228;-92
2023/06/17 00:06:14;;;;;;;10.30;9.25;;;13.90;99.90;;;;;;10317060;28;20622;-92
2023/06/17 00:11:20;;;;;;;9.98;7.63;;;13.80;99.90;;;;;;10323907;28;20572;-91
2023/06/17 00:16:51;;;;;;;9.60;7.60;;;14.00;99.90;;;;;;10317871;28;20209;-92
2023/06/17 00:21:54;;;;;;;8.07;7.28;;;14.10;99.90;;;;;;10333986;28;20217;-92
2023/06/17 00:26:56;;;;;;;9.60;8.70;;;14.10;99.90;;;;;;10314029;28;20241;-92
2023/06/17 00:33:01;;;;;;;8.25;7.50;;;14.30;99.90;;;;;;10333573;28;20287;-91
2023/06/17 00:38:03;;;;;;;10.85;9.43;;;14.30;99.90;;;;;;10316488;28;20209;-92
2023/06/17 00:43:07;;;;;;;8.50;7.57;;;14.20;99.90;;;;;;10316863;28;20259;-92
2023/06/17 00:48:11;;;;;;;8.75;8.05;;;14.20;99.90;;;;;;10350618;28;20217;-92
2023/06/17 00:53:30;;;;;;;8.82;8.05;;;14.10;99.90;;;;;;10340009;28;20225;-91
2023/06/17 00:58:33;;;;;;;8.95;8.15;;;14.10;99.90;;;;;;10343812;28;20244;-91
2023/06/17 01:03:36;;;;;;;11.95;9.52;;;14.00;99.90;;;;;;10340364;28;20723;-92
2023/06/17 01:09:02;;;;;;;10.23;9.27;;;13.90;99.90;;;;;;10323706;28;20212;-92
2023/06/17 01:14:13;;;;;;;10.75;9.75;;;13.90;99.90;;;;;;10325097;28;20205;-91
2023/06/17 01:19:20;;;;;;;8.50;7.43;;;13.70;99.90;;;;;;10323387;28;20216;-92
2023/06/17 01:24:50;;;;;;;10.10;8.32;;;13.60;99.90;;;;;;10342084;28;20501;-92
2023/06/17 01:29:53;;;;;;;8.70;7.57;;;13.80;99.90;;;;;;10318242;28;20233;-92
2023/06/17 01:35:07;;;;;;;8.10;7.40;;;13.80;99.90;;;;;;10337735;28;20264;-92
2023/06/17 01:40:13;;;;;;;10.57;9.20;;;13.60;99.90;;;;;;10338233;28;20275;-91
2023/06/17 01:45:41;;;;;;;9.77;8.88;;;13.40;99.90;;;;;;10338039;28;20216;-92
2023/06/17 01:50:45;;;;;;;6.53;6.03;;;13.30;99.90;;;;;;10354807;28;20217;-91
2023/06/17 01:55:49;;;;;;;8.52;7.82;;;13.30;99.90;;;;;;10322046;28;20549;-91
2023/06/17 02:00:53;;;;;;;10.20;8.15;;;13.60;99.90;;;;;;10304853;28;20715;-92
2023/06/17 02:05:55;;;;;;;7.40;6.80;;;13.70;99.90;;;;;;10339431;28;20209;-91
2023/06/17 02:10:58;;;;;;;8.82;7.93;;;13.80;99.90;;;;;;10338069;28;20229;-91
2023/06/17 02:16:01;;;;;;;8.38;7.65;;;13.40;99.90;;;;;;10352143;28;20652;-91
2023/06/17 02:21:12;;;;;;;7.18;6.47;;;13.80;99.90;;;;;;10322480;28;20213;-92
2023/06/17 02:26:17;;;;;;;8.60;7.72;;;14.00;99.90;;;;;;10337164;28;20655;-91
2023/06/17 02:31:27;;;;;;;12.05;9.38;;;14.10;99.90;;;;;;10354665;28;20249;-91
2023/06/17 02:36:31;;;;;;;7.13;6.53;;;14.00;99.90;;;;;;10353366;28;20213;-91
2023/06/17 02:41:42;;;;;;;9.18;8.40;;;14.10;99.90;;;;;;10320953;28;20208;-91
2023/06/17 02:46:45;;;;;;;7.68;6.80;;;14.00;99.90;;;;;;10320434;28;20528;-91
2023/06/17 02:51:49;;;;;;;7.60;6.93;;;13.90;99.90;;;;;;10352194;28;20295;-91
2023/06/17 02:56:51;;;;;;;11.80;10.32;;;14.20;99.90;;;;;;10320810;28;20260;-91
2023/06/17 03:01:54;;;;;;;9.25;8.35;;;14.10;99.90;;;;;;10319932;28;20297;-91
2023/06/17 03:06:59;;;;;;;9.52;8.60;;;13.90;99.90;;;;;;10336599;28;20205;-91
2023/06/17 03:12:02;;;;;;;10.75;9.02;;;13.70;99.90;;;;;;10317787;28;20237;-91
2023/06/17 03:17:07;;;;;;;10.80;9.40;;;13.50;99.90;;;;;;10318186;28;20209;-91
2023/06/17 03:22:10;;;;;;;12.27;10.85;;;13.50;99.90;;;;;;10317914;28;20734;-91
2023/06/17 03:27:17;;;;;;;7.35;6.43;;;13.40;99.90;;;;;;10350305;28;20205;-90
2023/06/17 03:32:21;;;;;;;9.75;8.75;;;13.90;99.90;;;;;;10318066;28;20650;-91
2023/06/17 03:37:24;;;;;;;8.38;7.60;;;14.30;99.90;;;;;;10317017;28;20209;-91
2023/06/17 03:42:26;;;;;;;11.68;10.40;;;14.40;99.90;;;;;;10333381;28;20283;-91
2023/06/17 03:47:29;;;;;;;12.65;11.38;;;14.50;99.90;;;;;;10349433;28;20256;-91
2023/06/17 03:52:42;;;;;;;8.52;7.80;;;15.00;99.90;;;;;;10351267;28;20221;-90
2023/06/17 03:57:46;;;;;;;7.63;6.93;;;15.40;99.90;;;;;;10348936;28;20804;-91
2023/06/17 04:03:34;;;;;;;7.15;6.53;;;15.70;99.90;;;;;;10333412;28;20557;-91
2023/06/17 04:09:05;;;;;;;8.60;7.60;;;15.90;99.90;;;;;;10316436;28;20568;-91
2023/06/17 04:14:09;;;;;;;9.65;8.80;;;16.20;99.90;;;;;;10333193;28;20240;-91
2023/06/17 04:19:13;;;;;;;6.18;5.68;;;16.30;99.90;;;;;;10332468;28;20213;-91
2023/06/17 04:24:16;;;;;;;8.00;7.30;;;16.50;99.90;;;;;;10321474;28;20204;-91
2023/06/17 04:29:20;;;;;;;5.90;5.40;;;16.70;99.90;;;;;;10326079;28;20208;-92
2023/06/17 04:34:23;;;;;;;9.20;8.30;;;17.00;99.90;;;;;;10324107;28;20775;-91
2023/06/17 04:39:54;;;;;;;9.27;8.48;;;17.20;99.90;;;;;;10258909;29;20227;-91
2023/06/17 04:44:57;;;;;;;6.63;6.03;;;17.40;99.90;;;;;;10256738;29;20213;-90
2023/06/17 04:50:03;;;;;;;10.27;9.30;;;17.80;99.90;;;;;;10232663;29;20313;-91
2023/06/17 04:55:14;;;;;;;8.57;7.68;;;17.90;99.90;;;;;;10238327;29;20231;-91
2023/06/17 05:00:17;;;;;;;6.30;5.75;;;17.80;99.90;;;;;;10249408;28;20210;-91
2023/06/17 05:05:25;;;;;;;6.38;5.78;;;17.90;99.90;;;;;;10247556;29;20640;-92
2023/06/17 05:10:28;;;;;;;13.60;12.07;;;18.00;99.90;;;;;;10254798;29;20226;-91
2023/06/17 05:22:28;;;;;;;10.85;9.75;;;18.10;99.90;;;;;;10262082;28;20634;-94
2023/06/17 05:28:01;;;;;;;11.70;8.20;;;18.40;99.90;;;;;;10331381;28;20233;-93
2023/06/17 05:33:07;;;;;;;7.72;6.93;;;18.50;99.90;;;;;;10298043;28;20596;-90
2023/06/17 05:38:10;;;;;;;10.52;9.52;;;18.40;99.90;;;;;;10343811;28;20209;-91
2023/06/17 05:43:13;;;;;;;10.23;9.18;;;18.50;99.90;;;;;;10339245;28;20263;-91
2023/06/17 05:48:17;;;;;;;11.13;9.98;;;18.40;99.90;;;;;;10321208;28;20212;-91
2023/06/17 05:53:20;;;;;;;10.23;9.23;;;18.40;99.90;;;;;;10320171;28;20233;-91
2023/06/17 05:58:23;;;;;;;9.30;8.38;;;18.40;99.90;;;;;;10320149;28;20209;-91
2023/06/17 06:03:31;;;;;;;12.35;9.88;;;18.40;99.90;;;;;;10320680;28;20233;-91
2023/06/17 06:08:34;;;;;;;8.10;7.07;;;18.40;99.90;;;;;;10335975;28;20275;-91
2023/06/17 06:13:37;;;;;;;8.88;8.07;;;18.50;99.90;;;;;;10336321;28;20289;-90
2023/06/17 06:18:40;;;;;;;9.23;8.10;;;18.70;99.90;;;;;;10320644;28;20213;-90
2023/06/17 06:23:42;;;;;;;7.57;6.75;;;18.80;99.90;;;;;;10319275;28;20291;-90
2023/06/17 06:28:46;;;;;;;7.63;6.93;;;19.00;99.90;;;;;;10337908;28;20230;-94
2023/06/17 06:41:33;;;;;;;8.43;5.95;;;18.90;98.90;;;;;;10209099;28;20698;-96
2023/06/17 06:47:20;;;;;;;6.72;6.13;;;19.10;99.90;;;;;;10096036;29;20213;-92
2023/06/17 07:28:13;;;;;;;36.83;9.48;;;20.40;96.30;;;;;;10320371;28;20545;-96
2023/06/17 07:33:19;;;;;;;9.55;6.28;;;20.80;95.50;;;;;;10286405;28;20290;-96
2023/06/17 07:45:26;;;;;;;53.10;11.43;;;21.00;95.90;;;;;;10315887;28;20209;-96
2023/06/17 07:57:57;;;;;;;30.23;8.27;;;21.90;96.70;;;;;;10347499;28;20181;-96
2023/06/17 08:03:00;;;;;;;32.95;9.57;;;22.20;95.40;;;;;;10352537;28;20248;-94
2023/06/17 08:08:03;;;;;;;24.27;6.97;;;22.20;94.80;;;;;;10370601;28;20216;-94
2023/06/17 08:13:07;;;;;;;29.15;8.88;;;;;;;;;;10354861;28;20675;-94
2023/06/17 08:18:30;;;;;;;47.42;9.35;;;22.50;96.70;;;;;;10367343;28;20260;-95
2023/06/17 08:23:33;;;;;;;11.73;4.80;;;22.80;98.20;;;;;;10354242;28;20217;-95
2023/06/17 08:28:36;;;;;;;20.30;7.85;;;23.10;91.20;;;;;;10367163;23;20294;-86
2023/06/17 08:33:38;;;;;;;34.47;8.75;;;23.30;87.70;;;;;;10351188;28;20286;-84
2023/06/17 08:38:41;;;;;;;17.80;5.70;;;23.30;95.60;;;;;;10365197;28;20255;-85
2023/06/17 08:43:46;;;;;;;18.85;7.57;;;23.60;96.60;;;;;;10346829;28;20301;-84
2023/06/17 08:48:50;;;;;;;16.92;6.82;;;23.70;93.80;;;;;;10372541;28;20299;-84
2023/06/17 08:53:52;;;;;;;22.85;6.97;;;23.50;95.00;;;;;;10388513;28;20266;-83
2023/06/17 08:58:55;;;;;;;19.02;6.85;;;23.60;96.10;;;;;;10378837;28;20236;-84
2023/06/17 09:04:00;;;;;;;15.88;6.85;;;23.50;90.60;;;;;;10359648;28;20239;-84
2023/06/17 09:09:03;;;;;;;7.53;4.78;;;23.20;86.40;;;;;;10364369;28;20247;-83
2023/06/17 09:25:17;;;;;;;6.65;5.47;;;23.70;69.60;;;;;;10256045;28;20281;-94
2023/06/17 09:30:22;;;;;;;7.75;5.05;;;23.90;64.10;;;;;;10290451;28;20211;-95
2023/06/17 09:35:26;;;;;;;5.93;5.32;;;23.90;63.90;;;;;;10256536;28;20266;-94
2023/06/17 09:40:29;;;;;;;6.75;5.68;;;24.00;65.90;;;;;;10286637;28;20210;-93
2023/06/17 09:45:32;;;;;;;6.93;6.22;;;24.00;64.20;;;;;;10285971;28;20253;-93
2023/06/17 09:50:37;;;;;;;5.50;5.00;;;24.00;63.00;;;;;;10268181;28;20700;-93
2023/06/17 09:55:41;;;;;;;5.85;5.35;;;24.00;64.60;;;;;;10289859;28;20230;-95
2023/06/17 10:00:46;;;;;;;6.28;5.45;;;24.00;59.60;;;;;;10253337;28;20253;-95
2023/06/17 10:05:56;;;;;;;6.55;5.95;;;23.80;62.00;;;;;;10282709;28;20250;-95
2023/06/17 10:11:00;;;;;;;7.00;5.68;;;24.00;61.70;;;;;;10286123;28;20629;-93
2023/06/17 10:16:07;;;;;;;6.32;5.78;;;24.00;59.50;;;;;;10255259;28;20224;-95
2023/06/17 10:21:13;;;;;;;5.80;5.25;;;24.20;61.30;;;;;;10294790;28;20296;-93
2023/06/17 10:26:15;;;;;;;5.43;4.93;;;24.40;60.90;;;;;;10293538;28;20277;-95
2023/06/17 10:31:27;;;;;;;5.53;5.03;;;24.60;58.40;;;;;;10294768;28;20292;-94
2023/06/17 10:36:31;;;;;;;5.72;5.22;;;24.50;58.90;;;;;;10292739;28;20578;-93
2023/06/17 10:41:40;;;;;;;5.95;5.35;;;24.50;58.90;;;;;;10291487;28;20584;-93
2023/06/17 10:46:42;;;;;;;7.13;5.63;;;24.50;58.10;;;;;;10292623;28;20248;-95
2023/06/17 10:51:50;;;;;;;6.35;5.80;;;24.50;51.70;;;;;;10291273;28;20269;-94
2023/06/17 10:57:01;;;;;;;6.95;5.53;;;24.60;56.60;;;;;;10293345;28;20214;-94
2023/06/17 11:02:08;;;;;;;6.05;5.53;;;24.30;54.90;;;;;;10291431;28;20201;-95
2023/06/17 11:07:13;;;;;;;5.72;5.22;;;24.00;55.00;;;;;;10288507;28;20260;-94
2023/06/17 11:12:16;;;;;;;6.18;5.57;;;23.70;54.70;;;;;;10293443;28;20587;-94
2023/06/17 11:17:19;;;;;;;5.70;5.03;;;23.40;57.10;;;;;;10289374;28;20237;-96
2023/06/17 11:22:22;;;;;;;5.53;5.03;;;23.60;52.20;;;;;;10290632;28;20300;-94
2023/06/17 11:27:25;;;;;;;5.32;4.82;;;23.70;59.50;;;;;;10306816;28;20241;-95
2023/06/17 11:32:28;;;;;;;6.57;5.82;;;23.70;54.40;;;;;;10303509;28;20300;-94
2023/06/17 11:37:31;;;;;;;5.63;5.13;;;23.70;58.50;;;;;;10305189;28;20217;-96
2023/06/17 11:42:34;;;;;;;6.18;5.68;;;23.90;58.70;;;;;;10307215;28;20288;-95
2023/06/17 11:47:37;;;;;;;8.13;7.43;;;23.90;53.20;;;;;;10297113;28;20206;-90
2023/06/17 11:52:39;;;;;;;11.25;7.07;;;24.10;50.90;;;;;;10290661;28;20727;-96
2023/06/17 11:57:43;;;;;;;8.30;7.00;;;24.00;50.00;;;;;;10303476;28;20269;-92
2023/06/17 12:02:46;;;;;;;5.93;5.40;;;24.00;47.90;;;;;;10287761;28;20301;-92
2023/06/17 12:07:49;;;;;;;4.90;4.50;;;24.30;54.40;;;;;;10286214;28;20298;-94
2023/06/17 12:12:58;;;;;;;6.65;5.93;;;24.40;54.70;;;;;;10286299;28;20311;-93
2023/06/17 12:18:12;;;;;;;5.43;4.93;;;24.30;54.20;;;;;;10301415;28;20233;-93
2023/06/17 12:23:19;;;;;;;5.55;5.05;;;24.30;56.00;;;;;;10287213;28;20280;-93
2023/06/17 12:28:23;;;;;;;7.43;6.13;;;24.30;53.50;;;;;;10295479;28;20218;-94
2023/06/17 12:33:25;;;;;;;6.45;5.85;;;24.30;52.30;;;;;;10290806;28;20381;-93
2023/06/17 12:38:29;;;;;;;6.78;4.95;;;24.40;52.80;;;;;;10292596;28;20927;-94
2023/06/17 12:43:34;;;;;;;8.40;7.15;;;24.50;53.70;;;;;;10291127;28;20217;-94
2023/06/17 12:48:38;;;;;;;5.38;4.88;;;24.40;51.70;;;;;;10312164;28;20214;-93
2023/06/17 12:53:41;;;;;;;6.10;5.60;;;24.40;52.50;;;;;;10296187;28;20327;-94
2023/06/17 12:58:43;;;;;;;5.95;5.35;;;24.60;51.50;;;;;;10297935;28;20565;-94
2023/06/17 13:03:46;;;;;;;7.43;6.07;;;24.50;50.20;;;;;;10295964;28;20549;-93
2023/06/17 13:08:49;;;;;;;6.38;5.55;;;24.40;50.30;;;;;;10311989;28;20288;-94
2023/06/17 13:13:52;;;;;;;6.63;5.97;;;24.40;50.40;;;;;;10311245;28;20716;-93
2023/06/17 13:18:56;;;;;;;5.85;5.30;;;24.40;49.60;;;;;;10299665;28;20214;-93
2023/06/17 13:23:58;;;;;;;5.63;5.10;;;24.40;51.10;;;;;;10294328;28;20580;-94
2023/06/17 13:29:02;;;;;;;6.80;6.18;;;24.40;50.60;;;;;;10295663;28;20218;-94
2023/06/17 13:34:06;;;;;;;6.28;5.68;;;24.30;50.10;;;;;;10305335;28;20261;-93
2023/06/17 13:39:11;;;;;;;6.93;6.22;;;23.90;46.90;;;;;;10321064;28;20285;-94
2023/06/17 13:44:19;;;;;;;6.53;5.93;;;24.00;45.60;;;;;;10323616;28;20194;-96
2023/06/17 13:49:23;;;;;;;7.10;6.40;;;24.20;41.50;;;;;;10308927;23;20284;-90
2023/06/17 13:54:27;;;;;;;7.57;6.88;;;24.40;36.60;;;;;;10337732;28;20696;-90
2023/06/17 13:59:29;;;;;;;10.55;5.82;;;24.70;40.70;;;;;;10322665;28;20216;-84
2023/06/17 14:04:32;;;;;;;15.73;6.78;;;24.80;38.90;;;;;;10357423;28;20263;-86
2023/06/17 14:09:35;;;;;;;20.02;6.78;;;24.80;42.70;;;;;;10352373;28;20267;-84
2023/06/17 14:14:37;;;;;;;7.32;6.20;;;24.70;48.30;;;;;;10339201;28;20319;-85
2023/06/17 14:19:40;;;;;;;11.43;7.30;;;24.50;37.00;;;;;;10351587;28;20247;-85
2023/06/17 14:24:42;;;;;;;12.20;6.75;;;24.10;49.00;;;;;;10366596;28;20646;-87
2023/06/17 14:29:45;;;;;;;9.90;5.95;;;23.90;54.50;;;;;;10331509;28;20248;-88
2023/06/17 14:34:49;;;;;;;9.52;6.45;;;23.60;56.30;;;;;;10290147;28;20280;-89
2023/06/17 14:39:52;;;;;;;7.53;6.82;;;23.50;58.20;;;;;;10301206;28;20244;-87
2023/06/17 14:44:55;;;;;;;7.30;5.32;;;23.20;61.90;;;;;;10357596;28;20243;-87
2023/06/17 14:49:57;;;;;;;10.50;5.68;;;22.90;63.70;;;;;;10354550;28;20755;-87
2023/06/17 14:55:00;;;;;;;8.20;6.45;;;22.80;68.30;;;;;;10371089;28;20279;-87
2023/06/17 15:00:03;;;;;;;8.82;6.07;;;22.50;67.60;;;;;;10369470;28;20595;-87
2023/06/17 15:05:06;;;;;;;9.68;6.15;;;22.40;70.90;;;;;;10353840;28;20245;-88
2023/06/17 15:10:09;;;;;;;7.18;5.78;;;22.20;74.00;;;;;;10321511;28;20225;-87
2023/06/17 15:15:13;;;;;;;7.20;5.50;;;22.20;76.60;;;;;;10318843;28;20237;-87
2023/06/17 15:20:16;;;;;;;5.90;5.30;;;22.10;79.30;;;;;;10312418;28;20240;-88
2023/06/17 15:25:22;;;;;;;6.45;5.75;;;22.20;82.90;;;;;;10333827;28;20237;-88
2023/06/17 15:30:25;;;;;;;8.65;6.47;;;22.40;83.80;;;;;;10327257;28;20836;-93
2023/06/17 15:35:29;;;;;;;7.03;5.15;;;22.40;83.90;;;;;;10304775;28;20306;-87
2023/06/17 15:40:31;;;;;;;5.93;5.32;;;22.20;85.20;;;;;;10340500;28;20600;-90
2023/06/17 15:45:34;;;;;;;6.00;5.50;;;22.00;80.70;;;;;;10338550;28;20325;-88
2023/06/17 15:50:37;;;;;;;7.20;5.90;;;21.80;79.00;;;;;;10329555;28;20272;-87
2023/06/17 15:55:40;;;;;;;7.53;6.20;;;22.00;80.60;;;;;;10311451;28;20264;-87
2023/06/17 16:00:43;;;;;;;6.25;5.60;;;22.00;79.60;;;;;;10328878;28;20746;-88
2023/06/17 16:05:45;;;;;;;8.85;5.90;;;21.90;80.60;;;;;;10328394;28;20611;-87
2023/06/17 16:10:48;;;;;;;6.28;5.35;;;21.70;79.30;;;;;;10328072;28;20244;-88
2023/06/17 16:15:51;;;;;;;5.20;4.78;;;21.80;81.00;;;;;;10325518;28;20631;-92
2023/06/17 16:20:55;;;;;;;5.82;5.30;;;21.70;80.50;;;;;;10336026;28;20207;-88
2023/06/17 16:25:58;;;;;;;6.03;5.53;;;21.80;78.10;;;;;;10323180;28;20240;-88
2023/06/17 16:31:01;;;;;;;5.60;5.20;;;21.80;80.10;;;;;;10340512;28;21007;-88
2023/06/17 16:36:04;;;;;;;5.43;5.00;;;22.30;81.10;;;;;;10339410;28;20268;-87
2023/06/17 16:41:07;;;;;;;5.55;5.05;;;22.70;74.90;;;;;;10324144;28;20236;-88
2023/06/17 16:46:10;;;;;;;5.63;5.13;;;23.10;75.00;;;;;;10324430;28;20272;-88
2023/06/17 16:51:15;;;;;;;5.95;5.38;;;23.30;72.70;;;;;;10325213;28;20268;-94
2023/06/17 16:56:18;;;;;;;6.38;5.80;;;23.50;70.20;;;;;;10327814;28;20232;-90
2023/06/17 17:01:21;;;;;;;5.90;5.35;;;23.40;65.40;;;;;;10341346;28;20796;-90
2023/06/17 17:06:24;;;;;;;9.13;5.82;;;23.40;67.80;;;;;;10342572;28;20604;-90
2023/06/17 17:11:27;;;;;;;4.63;4.30;;;23.30;67.50;;;;;;10340112;28;20216;-84
2023/06/17 17:16:30;;;;;;;5.03;4.63;;;23.20;68.50;;;;;;10341069;28;20673;-84
2023/06/17 17:21:33;;;;;;;5.45;5.05;;;23.10;68.40;;;;;;10323366;28;20620;-88
2023/06/17 17:26:36;;;;;;;5.30;4.80;;;23.10;71.70;;;;;;10340858;28;20304;-85
2023/06/17 17:31:39;;;;;;;6.18;5.57;;;23.10;73.60;;;;;;10336626;28;20676;-83
2023/06/17 17:36:43;;;;;;;6.43;5.82;;;23.10;73.90;;;;;;10333138;28;20310;-85
2023/06/17 17:41:45;;;;;;;5.85;5.35;;;23.00;71.40;;;;;;10331743;28;20217;-84
2023/06/17 17:46:48;;;;;;;6.45;5.85;;;22.90;74.90;;;;;;10333912;28;20545;-85
2023/06/17 17:51:50;;;;;;;5.95;5.20;;;22.80;75.00;;;;;;10316875;28;20291;-84
2023/06/17 17:56:53;;;;;;;6.93;6.28;;;22.60;74.60;;;;;;10332538;28;20272;-85
2023/06/17 18:01:55;;;;;;;6.53;5.93;;;22.60;77.90;;;;;;10332739;28;20209;-87
2023/06/17 18:06:58;;;;;;;6.40;5.90;;;22.30;74.90;;;;;;10331546;28;20267;-84
2023/06/17 18:12:00;;;;;;;5.45;5.05;;;21.90;73.60;;;;;;10332930;28;20240;-83
2023/06/17 18:17:04;;;;;;;6.55;5.95;;;21.40;77.40;;;;;;10332404;28;20268;-84
2023/06/17 18:22:06;;;;;;;8.65;7.75;;;21.30;81.20;;;;;;10314969;28;20283;-84
2023/06/17 18:27:09;;;;;;;12.68;10.10;;;21.10;86.20;;;;;;10347394;28;20283;-83
2023/06/17 18:32:14;;;;;;;7.10;6.47;;;21.00;90.00;;;;;;10316201;28;20561;-85
2023/06/17 18:37:18;;;;;;;10.73;7.68;;;20.60;91.60;;;;;;10314206;28;20635;-91
2023/06/17 18:42:23;;;;;;;10.68;9.05;;;20.70;92.90;;;;;;10314371;28;20217;-91
2023/06/17 18:47:25;;;;;;;7.28;6.60;;;20.60;93.40;;;;;;10330861;28;20213;-91
2023/06/17 18:52:28;;;;;;;9.20;8.30;;;20.40;94.70;;;;;;10314310;28;20279;-91
2023/06/17 18:57:31;;;;;;;9.15;8.35;;;20.30;94.20;;;;;;10315082;28;20279;-92
2023/06/17 19:02:34;;;;;;;6.40;5.85;;;20.20;95.20;;;;;;10331354;28;20691;-90
2023/06/17 19:07:40;;;;;;;6.90;6.32;;;20.20;97.00;;;;;;10315498;28;20213;-91
2023/06/17 19:12:44;;;;;;;8.68;7.88;;;20.30;97.00;;;;;;10332948;28;20233;-91
2023/06/17 19:17:47;;;;;;;8.40;7.70;;;19.90;96.90;;;;;;10315870;28;20652;-91
2023/06/17 19:22:50;;;;;;;9.32;8.35;;;19.50;98.10;;;;;;10330638;28;20287;-92
2023/06/17 19:27:53;;;;;;;9.57;7.55;;;18.90;99.90;;;;;;10315795;28;20216;-92
2023/06/17 19:32:55;;;;;;;6.35;5.82;;;18.70;99.90;;;;;;10315828;28;20603;-92
2023/06/17 19:37:58;;;;;;;10.65;9.40;;;18.70;99.90;;;;;;10313533;28;20264;-91
2023/06/17 19:43:01;;;;;;;8.30;7.50;;;18.40;99.90;;;;;;10313480;28;20283;-90
2023/06/17 19:48:04;;;;;;;10.65;8.10;;;18.30;99.90;;;;;;10313731;28;20726;-90
2023/06/17 19:53:07;;;;;;;14.90;10.88;;;18.10;99.90;;;;;;10311455;28;20272;-90
2023/06/17 19:58:09;;;;;;;10.32;9.35;;;17.80;99.90;;;;;;10327951;28;20236;-89
2023/06/17 20:03:12;;;;;;;7.55;6.90;;;17.50;99.90;;;;;;10327312;28;20244;-91
2023/06/17 20:08:15;;;;;;;6.10;5.60;;;17.60;99.90;;;;;;10327714;28;20233;-90
2023/06/17 20:13:18;;;;;;;12.10;9.85;;;17.60;99.90;;;;;;10310729;28;20287;-90
2023/06/17 20:18:20;;;;;;;16.75;11.40;;;17.60;99.90;;;;;;10327505;28;20213;-90
2023/06/17 20:23:23;;;;;;;10.18;9.23;;;17.60;99.90;;;;;;10313654;28;20209;-91
2023/06/17 20:28:26;;;;;;;15.68;12.50;;;17.50;99.90;;;;;;10311364;28;20682;-90
2023/06/17 20:33:29;;;;;;;7.85;7.15;;;17.40;99.90;;;;;;10309658;28;20237;-90
2023/06/17 20:38:32;;;;;;;8.98;8.07;;;17.30;99.90;;;;;;10310752;28;20244;-90
2023/06/17 20:43:35;;;;;;;6.40;5.80;;;17.40;99.90;;;;;;10328670;28;20580;-89
2023/06/17 20:48:37;;;;;;;14.27;10.80;;;17.70;99.90;;;;;;10311744;28;20490;-90
2023/06/17 20:53:40;;;;;;;7.57;6.88;;;17.70;99.90;;;;;;10328504;28;20403;-88
2023/06/17 20:58:43;;;;;;;12.70;10.38;;;17.80;99.90;;;;;;10327457;28;20645;-88
2023/06/17 21:03:46;;;;;;;8.57;7.72;;;17.60;99.90;;;;;;10324488;28;20336;-88
2023/06/17 21:08:49;;;;;;;10.65;9.68;;;17.70;99.90;;;;;;10333645;28;20926;-88
2023/06/17 21:13:52;;;;;;;16.05;9.20;;;17.50;99.90;;;;;;10340574;28;20255;-88
2023/06/17 21:18:55;;;;;;;16.05;13.85;;;17.70;99.90;;;;;;10355168;28;20294;-87
2023/06/17 21:23:57;;;;;;;10.48;9.43;;;17.70;99.90;;;;;;10354113;28;20259;-87
2023/06/17 21:29:00;;;;;;;14.52;11.77;;;17.70;99.90;;;;;;10357669;28;20258;-88
2023/06/17 21:34:03;;;;;;;11.05;10.05;;;17.50;99.90;;;;;;10361239;28;20248;-87
2023/06/17 21:39:05;;;;;;;20.00;15.13;;;17.50;99.90;;;;;;10354605;28;20255;-89
2023/06/17 21:44:08;;;;;;;13.48;11.75;;;17.50;99.90;;;;;;10362722;28;20290;-87
2023/06/17 21:49:10;;;;;;;13.40;11.98;;;17.40;99.90;;;;;;10364905;28;20252;-88
2023/06/17 21:54:13;;;;;;;13.45;11.38;;;17.40;99.90;;;;;;10344061;28;20293;-88
2023/06/17 21:59:15;;;;;;;14.35;12.95;;;17.20;99.90;;;;;;10375115;28;20241;-88
2023/06/17 22:04:18;;;;;;;17.10;12.98;;;17.20;99.90;;;;;;10318523;28;20320;-88
2023/06/17 22:09:20;;;;;;;12.15;10.73;;;17.00;99.90;;;;;;10355130;28;20232;-88
2023/06/17 22:14:23;;;;;;;10.85;9.75;;;17.10;99.90;;;;;;10315834;28;20577;-89
2023/06/17 22:19:26;;;;;;;13.63;12.30;;;17.30;99.90;;;;;;10315817;28;20643;-87
2023/06/17 22:24:29;;;;;;;11.60;10.43;;;17.40;99.90;;;;;;10345288;28;20624;-88
2023/06/17 22:29:32;;;;;;;10.68;9.70;;;17.50;99.90;;;;;;10363098;28;20678;-88
2023/06/17 22:34:35;;;;;;;11.80;10.48;;;17.50;99.90;;;;;;10358363;28;20272;-88
2023/06/17 22:39:38;;;;;;;11.68;10.48;;;17.50;99.90;;;;;;10329223;28;20257;-88
2023/06/17 22:44:41;;;;;;;11.55;10.32;;;17.60;99.90;;;;;;10347552;28;21773;-89
2023/06/17 22:49:44;;;;;;;8.27;7.57;;;17.50;99.90;;;;;;10351461;28;20232;-88
2023/06/17 22:54:46;;;;;;;10.52;9.00;;;17.50;99.90;;;;;;10364666;28;20256;-88
2023/06/17 22:59:51;;;;;;;11.43;8.95;;;17.70;99.90;;;;;;10354726;28;20282;-90
2023/06/17 23:04:54;;;;;;;11.25;10.18;;;17.70;99.90;;;;;;10360575;28;20298;-87
2023/06/17 23:09:56;;;;;;;11.95;10.85;;;17.60;99.90;;;;;;10334099;28;20683;-87
2023/06/17 23:14:59;;;;;;;11.35;10.27;;;17.50;99.90;;;;;;10366772;28;20267;-89
2023/06/17 23:20:02;;;;;;;11.38;10.23;;;17.40;99.90;;;;;;10363737;28;20243;-89
2023/06/17 23:25:06;;;;;;;12.90;9.95;;;17.30;99.90;;;;;;10362657;28;20243;-88
2023/06/17 23:30:11;;;;;;;10.95;9.88;;;17.10;99.90;;;;;;10351630;28;20583;-88
2023/06/17 23:35:14;;;;;;;14.57;10.10;;;16.90;99.90;;;;;;10367182;28;20330;-88
2023/06/17 23:40:17;;;;;;;11.98;10.65;;;16.60;99.90;;;;;;10345157;28;20266;-88
2023/06/17 23:45:19;;;;;;;12.25;10.90;;;16.50;99.90;;;;;;10359138;28;20661;-88
2023/06/17 23:50:22;;;;;;;13.10;11.32;;;16.50;99.90;;;;;;10352547;28;20691;-87
2023/06/17 23:55:25;;;;;;;13.73;12.30;;;16.40;99.90;;;;;;10368565;28;20726;-89
